createdAt,value
2023-01-18T00:01:19.216Z,95.26
2023-01-18T00:03:46.092Z,94.95
2023-01-18T00:06:13.011Z,94.67
2023-01-18T00:08:41.114Z,94.86
2023-01-18T00:11:09.424Z,95.28
2023-01-18T00:13:36.434Z,95.11
2023-01-18T00:16:22.216Z,95.98
2023-01-18T00:18:53.871Z,95.97
2023-01-18T00:21:20.912Z,95.66
2023-01-18T00:23:47.625Z,95.36
2023-01-18T00:26:14.253Z,95.38
2023-01-18T00:28:41.138Z,95.32
2023-01-18T00:31:11.680Z,95.00
2023-01-18T00:33:39.033Z,95.74
2023-01-18T00:36:05.976Z,95.44
2023-01-18T00:38:32.567Z,95.33
2023-01-18T00:40:59.176Z,95.86
2023-01-18T00:43:41.032Z,95.75
2023-01-18T00:46:30.300Z,95.13
2023-01-18T00:48:58.686Z,94.75
2023-01-18T00:51:25.981Z,95.06
2023-01-18T00:53:52.657Z,94.61
2023-01-18T00:56:21.806Z,94.51
2023-01-18T00:58:48.500Z,94.40
2023-01-18T01:01:15.327Z,94.71
2023-01-18T01:04:00.623Z,95.11
2023-01-18T01:06:46.030Z,96.22
2023-01-18T01:09:17.634Z,97.09
2023-01-18T01:12:03.827Z,96.11
2023-01-18T01:14:49.943Z,95.67
2023-01-18T01:17:35.579Z,96.87
2023-01-18T01:20:21.000Z,97.90
2023-01-18T01:23:06.547Z,97.90
2023-01-18T01:25:51.607Z,97.47
2023-01-18T01:28:18.278Z,97.22
2023-01-18T01:30:45.518Z,97.10
2023-01-18T01:33:12.271Z,96.60
2023-01-18T01:35:39.013Z,96.21
2023-01-18T01:38:06.636Z,96.33
2023-01-18T01:40:33.316Z,96.21
2023-01-18T01:42:59.988Z,95.69
2023-01-18T01:45:30.137Z,95.52
2023-01-18T01:47:57.622Z,95.71
2023-01-18T01:50:35.395Z,96.32
2023-01-18T01:53:03.003Z,97.32
2023-01-18T01:55:36.696Z,97.39
2023-01-18T01:58:17.588Z,97.18
2023-01-18T02:00:45.515Z,96.93
2023-01-18T02:03:15.705Z,97.25
2023-01-18T02:05:45.545Z,96.57
2023-01-18T02:08:22.231Z,96.44
2023-01-18T02:10:49.991Z,96.17
2023-01-18T02:13:18.263Z,96.12
2023-01-18T02:16:10.530Z,96.15
2023-01-18T02:18:48.125Z,96.17
2023-01-18T02:21:20.821Z,96.35
2023-01-18T02:24:10.400Z,96.52
2023-01-18T02:26:55.847Z,96.33
2023-01-18T02:29:49.218Z,96.98
2023-01-18T02:32:44.906Z,96.08
2023-01-18T02:35:20.719Z,95.47
2023-01-18T02:37:53.562Z,95.45
2023-01-18T02:40:45.291Z,95.41
2023-01-18T02:43:34.847Z,95.19
2023-01-18T02:46:20.596Z,95.22
2023-01-18T02:48:48.982Z,95.15
2023-01-18T02:51:15.624Z,95.33
2023-01-18T02:53:44.539Z,95.37
2023-01-18T02:56:20.218Z,95.27
2023-01-18T02:58:53.963Z,95.87
2023-01-18T03:01:36.477Z,95.68
2023-01-18T03:04:32.557Z,95.65
2023-01-18T03:07:05.724Z,96.54
2023-01-18T03:09:32.491Z,97.02
2023-01-18T03:12:12.017Z,96.83
2023-01-18T03:15:05.091Z,97.18
2023-01-18T03:17:41.984Z,96.95
2023-01-18T03:20:15.069Z,97.32
2023-01-18T03:23:07.841Z,97.44
2023-01-18T03:25:38.170Z,97.42
2023-01-18T03:28:39.934Z,96.94
2023-01-18T03:31:30.350Z,96.77
2023-01-18T03:34:03.932Z,97.64
2023-01-18T03:36:39.003Z,98.07
2023-01-18T03:39:10.557Z,99.07
2023-01-18T03:41:42.405Z,98.79
2023-01-18T03:44:19.276Z,98.52
2023-01-18T03:46:46.386Z,98.21
2023-01-18T03:49:13.796Z,98.56
2023-01-18T03:51:54.141Z,98.17
2023-01-18T03:54:43.524Z,98.49
2023-01-18T03:57:24.333Z,98.39
2023-01-18T03:59:51.857Z,98.18
2023-01-18T04:02:20.358Z,98.12
2023-01-18T04:04:47.067Z,97.91
2023-01-18T04:07:13.751Z,97.70
2023-01-18T04:09:40.385Z,97.39
2023-01-18T04:12:07.426Z,97.40
2023-01-18T04:14:34.080Z,97.22
2023-01-18T04:17:00.747Z,97.30
2023-01-18T04:19:28.331Z,97.24
2023-01-18T04:21:55.079Z,97.03
2023-01-18T04:24:21.749Z,96.83
2023-01-18T04:26:48.376Z,96.89
2023-01-18T04:29:15.023Z,96.96
2023-01-18T04:31:41.710Z,97.01
2023-01-18T04:34:08.513Z,97.49
2023-01-18T04:36:35.171Z,97.35
2023-01-18T04:39:01.815Z,97.48
2023-01-18T04:41:28.691Z,97.53
2023-01-18T04:43:55.304Z,97.36
2023-01-18T04:46:22.012Z,97.36
2023-01-18T04:48:52.421Z,97.10
2023-01-18T04:51:19.569Z,96.90
2023-01-18T04:53:46.631Z,97.02
2023-01-18T04:56:13.429Z,97.10
2023-01-18T04:58:40.093Z,97.14
2023-01-18T05:01:09.155Z,96.95
2023-01-18T05:03:38.388Z,96.68
2023-01-18T05:06:10.012Z,96.91
2023-01-18T05:08:41.078Z,96.85
2023-01-18T05:11:10.638Z,96.60
2023-01-18T05:13:38.158Z,96.70
2023-01-18T05:16:06.298Z,96.68
2023-01-18T05:18:34.047Z,96.92
2023-01-18T05:21:00.674Z,98.05
2023-01-18T05:23:27.315Z,97.90
2023-01-18T05:25:58.045Z,97.91
2023-01-18T05:28:27.122Z,97.83
2023-01-18T05:30:54.694Z,97.78
2023-01-18T05:33:22.641Z,97.59
2023-01-18T05:35:50.909Z,97.88
2023-01-18T05:38:18.097Z,97.79
2023-01-18T05:40:45.873Z,97.99
2023-01-18T05:43:12.966Z,98.19
2023-01-18T05:45:42.253Z,97.74
2023-01-18T05:48:09.111Z,98.12
2023-01-18T05:50:35.791Z,98.29
2023-01-18T05:53:02.828Z,98.02
2023-01-18T05:55:29.628Z,97.89
2023-01-18T05:57:56.318Z,98.10
2023-01-18T06:00:23.331Z,98.40
2023-01-18T06:02:50.028Z,98.61
2023-01-18T06:05:16.836Z,98.48
2023-01-18T06:07:43.573Z,98.14
2023-01-18T06:10:11.115Z,98.27
2023-01-18T06:12:37.713Z,97.84
2023-01-18T06:15:04.694Z,97.72
2023-01-18T06:17:31.463Z,98.04
2023-01-18T06:19:58.698Z,97.79
2023-01-18T06:22:27.894Z,98.05
2023-01-18T06:24:55.339Z,98.02
2023-01-18T06:27:26.901Z,98.50
2023-01-18T06:29:53.539Z,98.84
2023-01-18T06:32:20.284Z,99.03
2023-01-18T06:34:46.912Z,98.69
2023-01-18T06:37:13.713Z,98.89
2023-01-18T06:39:40.436Z,98.44
2023-01-18T06:42:07.076Z,98.46
2023-01-18T06:44:33.752Z,98.06
2023-01-18T06:47:00.400Z,97.52
2023-01-18T06:49:27.700Z,97.54
2023-01-18T06:51:54.347Z,97.94
2023-01-18T06:54:20.985Z,97.60
2023-01-18T06:56:48.358Z,97.87
2023-01-18T06:59:15.809Z,96.82
2023-01-18T07:01:42.604Z,96.35
2023-01-18T07:04:09.314Z,96.84
2023-01-18T07:06:36.767Z,97.11
2023-01-18T07:09:07.587Z,97.39
2023-01-18T07:11:35.844Z,97.11
2023-01-18T07:14:03.007Z,96.90
2023-01-18T07:16:30.316Z,96.79
2023-01-18T07:18:58.657Z,96.78
2023-01-18T07:21:29.902Z,96.79
2023-01-18T07:23:58.060Z,96.95
2023-01-18T07:26:25.558Z,96.75
2023-01-18T07:28:54.790Z,96.24
2023-01-18T07:31:23.872Z,96.19
2023-01-18T07:33:50.954Z,96.94
2023-01-18T07:36:17.637Z,97.33
2023-01-18T07:38:44.741Z,97.73
2023-01-18T07:41:14.457Z,97.68
2023-01-18T07:43:42.825Z,97.33
2023-01-18T07:46:17.101Z,97.65
2023-01-18T07:48:44.836Z,97.70
2023-01-18T07:51:11.595Z,98.13
2023-01-18T07:53:39.426Z,97.94
2023-01-18T07:56:09.119Z,98.20
2023-01-18T07:58:36.414Z,98.24
2023-01-18T08:01:11.570Z,98.29
2023-01-18T08:03:38.961Z,98.26
2023-01-18T08:06:09.313Z,98.02
2023-01-18T08:08:37.153Z,97.67
2023-01-18T08:11:06.068Z,97.89
2023-01-18T08:13:33.076Z,98.50
2023-01-18T08:16:01.919Z,98.60
2023-01-18T08:18:28.574Z,98.45
2023-01-18T08:20:55.675Z,98.79
2023-01-18T08:23:22.538Z,99.07
2023-01-18T08:25:49.748Z,98.72
2023-01-18T08:28:16.690Z,98.00
2023-01-18T08:30:45.678Z,98.06
2023-01-18T08:33:13.202Z,97.91
2023-01-18T08:35:45.890Z,97.75
2023-01-18T08:38:14.915Z,97.46
2023-01-18T08:40:42.678Z,97.27
2023-01-18T08:43:11.793Z,97.18
2023-01-18T08:45:38.518Z,97.29
2023-01-18T08:48:07.820Z,97.00
2023-01-18T08:50:34.782Z,97.19
2023-01-18T08:53:02.895Z,96.78
2023-01-18T08:55:30.408Z,96.18
2023-01-18T08:57:58.396Z,96.38
2023-01-18T09:00:28.661Z,95.77
2023-01-18T09:02:55.515Z,95.11
2023-01-18T09:05:23.025Z,96.09
2023-01-18T09:07:50.962Z,95.67
2023-01-18T09:10:18.319Z,95.23
2023-01-18T09:12:45.031Z,94.99
2023-01-18T09:15:11.630Z,94.41
2023-01-18T09:17:38.316Z,94.04
2023-01-18T09:20:09.910Z,93.57
2023-01-18T09:22:37.014Z,92.61
2023-01-18T09:25:05.824Z,91.98
2023-01-18T09:27:32.789Z,92.62
2023-01-18T09:29:59.522Z,93.12
2023-01-18T09:32:27.521Z,93.30
2023-01-18T09:34:54.929Z,93.44
2023-01-18T09:37:22.203Z,93.52
2023-01-18T09:39:52.788Z,93.26
2023-01-18T09:42:25.382Z,93.69
2023-01-18T09:44:58.750Z,93.16
2023-01-18T09:47:36.780Z,92.48
2023-01-18T09:50:14.928Z,92.82
2023-01-18T09:53:17.177Z,92.41
2023-01-18T09:56:10.734Z,92.58
2023-01-18T09:58:50.825Z,92.50
2023-01-18T10:01:22.491Z,92.41
2023-01-18T10:04:17.211Z,92.75
2023-01-18T10:06:56.139Z,92.53
2023-01-18T10:09:27.508Z,91.76
2023-01-18T10:12:04.395Z,89.98
2023-01-18T10:14:39.878Z,89.08
2023-01-18T10:17:14.830Z,87.86
2023-01-18T10:19:41.639Z,87.58
2023-01-18T10:22:19.434Z,87.45
2023-01-18T10:24:50.207Z,88.54
2023-01-18T10:27:21.814Z,88.10
2023-01-18T10:29:57.456Z,88.50
2023-01-18T10:32:26.646Z,87.49
2023-01-18T10:34:53.370Z,86.88
2023-01-18T10:37:40.373Z,86.80
2023-01-18T10:40:10.352Z,86.83
2023-01-18T10:42:43.527Z,86.12
2023-01-18T10:45:22.183Z,86.08
2023-01-18T10:47:50.405Z,86.34
2023-01-18T10:50:35.586Z,85.73
2023-01-18T10:53:23.853Z,85.25
2023-01-18T10:56:10.736Z,85.49
2023-01-18T10:58:55.533Z,84.60
2023-01-18T11:01:27.243Z,83.09
2023-01-18T11:04:17.268Z,84.02
2023-01-18T11:06:57.659Z,84.21
2023-01-18T11:09:55.649Z,83.83
2023-01-18T11:12:34.318Z,83.87
2023-01-18T11:15:15.984Z,81.63
2023-01-18T11:17:56.325Z,81.14
2023-01-18T11:20:45.856Z,79.63
2023-01-18T11:23:23.262Z,79.77
2023-01-18T11:25:52.822Z,80.38
2023-01-18T11:28:21.747Z,79.34
2023-01-18T11:31:06.597Z,80.00
2023-01-18T11:33:33.774Z,79.47
2023-01-18T11:36:02.925Z,79.56
2023-01-18T11:38:33.221Z,79.58
2023-01-18T11:41:25.789Z,79.88
2023-01-18T11:44:01.093Z,80.55
2023-01-18T11:46:39.062Z,79.05
2023-01-18T11:49:38.932Z,78.96
2023-01-18T11:52:17.740Z,78.49
2023-01-18T11:54:57.759Z,77.36
2023-01-18T11:57:24.425Z,77.00
2023-01-18T11:59:51.052Z,74.63
2023-01-18T12:02:36.530Z,72.68
2023-01-18T12:05:25.839Z,72.83
2023-01-18T12:08:01.537Z,73.57
2023-01-18T12:10:36.838Z,72.71
2023-01-18T12:13:21.831Z,72.52
2023-01-18T12:15:55.681Z,72.15
2023-01-18T12:18:48.841Z,71.74
2023-01-18T12:21:31.398Z,71.01
2023-01-18T12:24:16.267Z,70.54
2023-01-18T12:26:59.573Z,70.71
2023-01-18T12:29:52.916Z,71.05
2023-01-18T12:32:55.278Z,70.58
2023-01-18T12:35:37.150Z,71.26
2023-01-18T12:38:23.994Z,70.61
2023-01-18T12:41:13.490Z,71.84
2023-01-18T12:44:05.492Z,71.42
2023-01-18T12:46:51.212Z,70.67
2023-01-18T12:49:21.497Z,71.39
2023-01-18T12:51:53.298Z,69.33
2023-01-18T12:54:32.132Z,68.35
2023-01-18T12:57:01.034Z,67.91
2023-01-18T12:59:57.922Z,66.56
2023-01-18T13:02:37.000Z,65.44
2023-01-18T13:05:33.096Z,64.69
2023-01-18T13:08:17.054Z,64.65
2023-01-18T13:10:44.674Z,66.25
2023-01-18T13:13:19.965Z,66.87
2023-01-18T13:16:26.659Z,66.04
2023-01-18T13:19:07.383Z,62.96
2023-01-18T13:21:42.974Z,64.04
2023-01-18T13:24:28.202Z,62.81
2023-01-18T13:27:07.818Z,62.15
2023-01-18T13:29:34.709Z,63.44
2023-01-18T13:32:01.651Z,61.56
2023-01-18T13:34:44.961Z,62.90
2023-01-18T13:37:42.849Z,60.96
2023-01-18T13:40:39.170Z,59.76
2023-01-18T13:43:26.655Z,61.24
2023-01-18T13:46:08.611Z,62.93
2023-01-18T13:48:47.473Z,63.11
2023-01-18T13:51:39.452Z,60.96
2023-01-18T13:54:18.621Z,59.41
2023-01-18T13:57:05.319Z,60.47
2023-01-18T13:59:41.069Z,60.33
2023-01-18T14:02:42.300Z,61.25
2023-01-18T14:05:25.968Z,61.05
2023-01-18T14:08:02.662Z,60.17
2023-01-18T14:10:36.734Z,60.55
2023-01-18T14:13:06.723Z,60.97
2023-01-18T14:15:42.472Z,62.29
2023-01-18T14:18:18.451Z,61.17
2023-01-18T14:21:10.896Z,61.96
2023-01-18T14:24:15.941Z,63.18
2023-01-18T14:26:44.254Z,63.76
2023-01-18T14:29:17.875Z,63.88
2023-01-18T14:31:49.564Z,64.35
2023-01-18T14:34:38.145Z,64.38
2023-01-18T14:37:26.470Z,64.54
2023-01-18T14:40:28.471Z,64.84
2023-01-18T14:42:58.759Z,65.63
2023-01-18T14:45:29.728Z,65.53
2023-01-18T14:48:02.550Z,65.94
2023-01-18T14:50:36.678Z,65.04
2023-01-18T14:53:04.758Z,65.73
2023-01-18T14:55:33.768Z,66.09
2023-01-18T14:58:11.697Z,65.13
2023-01-18T15:00:50.532Z,66.05
2023-01-18T15:03:26.380Z,65.88
2023-01-18T15:06:17.334Z,65.74
2023-01-18T15:08:46.500Z,66.55
2023-01-18T15:11:14.096Z,65.77
2023-01-18T15:13:49.254Z,66.41
2023-01-18T15:16:21.915Z,66.67
2023-01-18T15:18:51.030Z,66.86
2023-01-18T15:21:22.530Z,67.39
2023-01-18T15:23:52.769Z,67.60
2023-01-18T15:26:34.220Z,67.88
2023-01-18T15:29:16.590Z,68.15
2023-01-18T15:32:04.864Z,68.23
2023-01-18T15:34:40.072Z,69.45
2023-01-18T15:37:12.278Z,69.51
2023-01-18T15:39:56.776Z,69.25
2023-01-18T15:42:32.684Z,69.67
2023-01-18T15:45:00.100Z,70.82
2023-01-18T15:47:38.066Z,70.83
2023-01-18T15:50:15.479Z,71.07
2023-01-18T15:52:49.035Z,71.59
2023-01-18T15:55:32.634Z,71.45
2023-01-18T15:58:07.165Z,71.84
2023-01-18T16:00:41.977Z,71.69
2023-01-18T16:03:25.513Z,71.86
2023-01-18T16:06:06.530Z,72.20
2023-01-18T16:08:33.651Z,72.54
2023-01-18T16:11:01.184Z,73.27
2023-01-18T16:13:39.360Z,72.97
2023-01-18T16:16:06.054Z,72.57
2023-01-18T16:18:32.772Z,73.17
2023-01-18T16:21:01.519Z,73.45
2023-01-18T16:23:29.362Z,73.16
2023-01-18T16:26:04.500Z,72.96
2023-01-18T16:28:33.337Z,73.52
2023-01-18T16:31:03.404Z,73.29
2023-01-18T16:33:30.200Z,73.20
2023-01-18T16:35:56.893Z,72.74
2023-01-18T16:38:23.922Z,73.14
2023-01-18T16:40:51.403Z,72.59
2023-01-18T16:43:17.976Z,72.68
2023-01-18T16:45:46.563Z,73.06
2023-01-18T16:48:21.935Z,73.36
2023-01-18T16:50:49.552Z,73.22
2023-01-18T16:53:17.504Z,73.12
2023-01-18T16:55:44.827Z,73.02
2023-01-18T16:58:16.593Z,73.13
2023-01-18T17:01:00.328Z,73.42
2023-01-18T17:03:27.630Z,73.63
2023-01-18T17:05:55.503Z,74.32
2023-01-18T17:08:22.086Z,74.10
2023-01-18T17:10:51.272Z,74.32
2023-01-18T17:13:18.179Z,74.36
2023-01-18T17:15:45.619Z,74.59
2023-01-18T17:18:22.446Z,74.53
2023-01-18T17:20:49.248Z,74.70
2023-01-18T17:23:16.736Z,75.17
2023-01-18T17:25:43.673Z,75.25
2023-01-18T17:28:15.294Z,75.33
2023-01-18T17:30:48.382Z,75.48
2023-01-18T17:33:18.123Z,75.92
2023-01-18T17:35:45.019Z,76.13
2023-01-18T17:38:22.295Z,77.25
2023-01-18T17:40:49.634Z,77.03
2023-01-18T17:43:32.124Z,77.67
2023-01-18T17:46:02.925Z,77.52
2023-01-18T17:48:29.825Z,77.45
2023-01-18T17:50:56.611Z,77.62
2023-01-18T17:53:23.286Z,77.62
2023-01-18T17:55:50.105Z,77.66
2023-01-18T17:58:16.787Z,77.40
2023-01-18T18:00:43.522Z,77.34
2023-01-18T18:03:10.370Z,77.81
2023-01-18T18:05:37.178Z,77.94
2023-01-18T18:08:04.129Z,77.58
2023-01-18T18:10:31.170Z,77.25
2023-01-18T18:12:58.423Z,77.64
2023-01-18T18:15:25.415Z,77.59
2023-01-18T18:17:52.348Z,77.54
2023-01-18T18:20:20.251Z,77.63
2023-01-18T18:23:05.793Z,77.81
2023-01-18T18:25:36.878Z,77.94
2023-01-18T18:28:07.643Z,77.91
2023-01-18T18:30:48.384Z,78.18
2023-01-18T18:33:16.628Z,78.02
2023-01-18T18:35:43.403Z,77.90
2023-01-18T18:38:10.171Z,78.16
2023-01-18T18:40:36.937Z,77.87
2023-01-18T18:43:03.610Z,78.51
2023-01-18T18:45:33.966Z,78.78
2023-01-18T18:48:01.239Z,79.21
2023-01-18T18:50:28.512Z,79.38
2023-01-18T18:52:55.477Z,79.37
2023-01-18T18:55:22.272Z,79.24
2023-01-18T18:57:49.337Z,79.17
2023-01-18T19:00:16.476Z,79.66
2023-01-18T19:02:43.292Z,79.24
2023-01-18T19:05:10.974Z,79.44
2023-01-18T19:07:38.263Z,79.38
2023-01-18T19:10:06.509Z,79.46
2023-01-18T19:12:33.301Z,79.42
2023-01-18T19:14:59.992Z,79.82
2023-01-18T19:17:30.685Z,79.61
2023-01-18T19:19:58.276Z,80.02
2023-01-18T19:22:25.353Z,79.78
2023-01-18T19:24:52.030Z,79.88
2023-01-18T19:27:18.685Z,80.29
2023-01-18T19:29:45.415Z,79.90
2023-01-18T19:32:12.204Z,79.96
2023-01-18T19:34:39.333Z,79.90
2023-01-18T19:37:06.885Z,79.96
2023-01-18T19:39:34.985Z,79.76
2023-01-18T19:42:02.458Z,80.17
2023-01-18T19:44:29.720Z,80.54
2023-01-18T19:46:57.826Z,80.61
2023-01-18T19:49:26.445Z,80.61
2023-01-18T19:51:54.814Z,80.94
2023-01-18T19:54:22.091Z,81.28
2023-01-18T19:56:48.887Z,81.71
2023-01-18T19:59:16.160Z,81.28
2023-01-18T20:01:43.402Z,81.28
2023-01-18T20:04:10.987Z,81.23
2023-01-18T20:06:38.499Z,80.86
2023-01-18T20:09:17.830Z,81.43
2023-01-18T20:11:45.111Z,82.64
2023-01-18T20:14:12.309Z,83.21
2023-01-18T20:16:39.419Z,83.74
2023-01-18T20:19:06.409Z,83.31
2023-01-18T20:21:33.123Z,83.38
2023-01-18T20:24:01.033Z,82.68
2023-01-18T20:26:36.478Z,82.65
2023-01-18T20:29:08.794Z,83.21
2023-01-18T20:31:37.025Z,83.08
2023-01-18T20:34:05.420Z,83.35
2023-01-18T20:36:34.902Z,83.72
2023-01-18T20:39:02.332Z,83.81
2023-01-18T20:41:29.060Z,83.93
2023-01-18T20:43:55.739Z,83.63
2023-01-18T20:46:22.474Z,84.19
2023-01-18T20:48:49.717Z,84.36
2023-01-18T20:51:18.031Z,84.40
2023-01-18T20:53:44.853Z,84.31
2023-01-18T20:56:27.958Z,83.95
2023-01-18T20:58:55.354Z,83.47
2023-01-18T21:01:22.224Z,83.11
2023-01-18T21:03:59.003Z,83.36
2023-01-18T21:06:26.003Z,83.19
2023-01-18T21:08:54.291Z,83.26
2023-01-18T21:11:23.163Z,83.54
2023-01-18T21:13:51.308Z,84.28
2023-01-18T21:16:18.209Z,84.24
2023-01-18T21:18:44.987Z,83.99
2023-01-18T21:21:11.754Z,83.97
2023-01-18T21:23:41.822Z,83.89
2023-01-18T21:26:12.060Z,83.82
2023-01-18T21:28:38.882Z,83.82
2023-01-18T21:31:06.564Z,83.86
2023-01-18T21:33:33.832Z,83.79
2023-01-18T21:36:13.806Z,84.17
2023-01-18T21:38:41.378Z,84.03
2023-01-18T21:41:26.652Z,84.06
2023-01-18T21:44:12.805Z,83.94
2023-01-18T21:46:44.969Z,84.49
2023-01-18T21:49:43.297Z,84.06
2023-01-18T21:52:36.687Z,84.67
2023-01-18T21:55:03.408Z,84.38
2023-01-18T21:57:30.188Z,84.00
2023-01-18T21:59:56.951Z,84.08
2023-01-18T22:02:23.692Z,84.15
2023-01-18T22:05:19.610Z,84.72
2023-01-18T22:07:46.285Z,84.80
2023-01-18T22:10:12.959Z,84.53
2023-01-18T22:12:39.607Z,84.27
2023-01-18T22:15:06.751Z,84.80
2023-01-18T22:17:33.773Z,85.83
2023-01-18T22:20:01.727Z,85.75
2023-01-18T22:22:28.625Z,86.13
2023-01-18T22:24:56.568Z,86.44
2023-01-18T22:27:23.230Z,86.15
2023-01-18T22:29:49.948Z,86.19
2023-01-18T22:32:16.853Z,85.62
2023-01-18T22:34:43.489Z,85.99
2023-01-18T22:37:10.595Z,86.39
2023-01-18T22:39:37.295Z,85.91
2023-01-18T22:42:04.208Z,85.60
2023-01-18T22:44:30.898Z,86.28
2023-01-18T22:46:57.531Z,86.58
2023-01-18T22:49:24.208Z,86.56
2023-01-18T22:51:50.851Z,85.80
2023-01-18T22:54:22.289Z,85.84
2023-01-18T22:56:48.940Z,85.72
2023-01-18T22:59:15.759Z,85.97
2023-01-18T23:01:42.428Z,85.96
2023-01-18T23:04:10.484Z,85.98
2023-01-18T23:06:46.956Z,85.84
2023-01-18T23:09:15.946Z,85.42
2023-01-18T23:11:42.695Z,85.32
2023-01-18T23:14:27.951Z,85.45
2023-01-18T23:17:13.211Z,86.09
2023-01-18T23:19:39.950Z,86.41
2023-01-18T23:22:09.480Z,85.98
2023-01-18T23:24:37.013Z,85.87
2023-01-18T23:27:06.218Z,86.52
2023-01-18T23:29:33.143Z,86.12
2023-01-18T23:31:59.896Z,86.66
2023-01-18T23:34:26.534Z,86.48
2023-01-18T23:36:53.770Z,86.27
2023-01-18T23:39:39.068Z,86.90
2023-01-18T23:42:24.139Z,86.70
2023-01-18T23:45:09.311Z,86.65
2023-01-18T23:47:54.850Z,86.53
2023-01-18T23:50:40.600Z,86.18
2023-01-18T23:53:30.696Z,86.71
2023-01-18T23:55:57.953Z,85.79
2023-01-18T23:58:25.077Z,86.44
